createdAt,value
2022-10-10T00:02:16.595Z,3.17
2022-10-10T00:05:20.277Z,3.60
2022-10-10T00:08:23.918Z,3.83
2022-10-10T00:11:29.846Z,3.42
2022-10-10T00:14:33.498Z,3.47
2022-10-10T00:17:37.191Z,3.35
2022-10-10T00:20:40.871Z,3.58
2022-10-10T00:23:44.493Z,3.90
2022-10-10T00:26:50.037Z,3.28
2022-10-10T00:29:53.905Z,3.65
2022-10-10T00:32:59.186Z,3.78
2022-10-10T00:36:02.985Z,3.42
2022-10-10T00:39:06.637Z,3.22
2022-10-10T00:42:14.693Z,3.00
2022-10-10T00:45:28.506Z,3.22
2022-10-10T00:48:35.069Z,3.50
2022-10-10T00:51:39.389Z,3.65
2022-10-10T00:54:43.032Z,3.60
2022-10-10T00:57:49.107Z,3.30
2022-10-10T01:00:53.441Z,3.88
2022-10-10T01:03:59.761Z,3.65
2022-10-10T01:07:06.730Z,3.28
2022-10-10T01:10:16.046Z,3.85
2022-10-10T01:13:32.054Z,3.13
2022-10-10T01:16:45.090Z,3.85
2022-10-10T01:20:19.442Z,3.53
2022-10-10T01:23:53.018Z,3.38
2022-10-10T01:27:12.413Z,3.42
2022-10-10T01:30:21.970Z,3.53
2022-10-10T01:33:33.466Z,3.30
2022-10-10T01:36:44.889Z,3.42
2022-10-10T01:39:55.935Z,3.80
2022-10-10T01:43:03.646Z,3.70
2022-10-10T01:46:14.277Z,3.40
2022-10-10T01:49:18.106Z,3.83
2022-10-10T01:52:31.588Z,3.67
2022-10-10T01:55:47.778Z,3.23
2022-10-10T01:59:04.567Z,3.22
2022-10-10T02:02:17.360Z,3.50
2022-10-10T02:05:27.013Z,3.78
2022-10-10T02:08:34.965Z,3.65
2022-10-10T02:11:40.835Z,3.58
2022-10-10T02:14:47.502Z,3.47
2022-10-10T02:17:55.470Z,3.53
2022-10-10T02:21:00.446Z,3.72
2022-10-10T02:24:07.223Z,3.65
2022-10-10T02:27:15.397Z,3.72
2022-10-10T02:30:19.706Z,3.42
2022-10-10T02:33:30.583Z,4.03
2022-10-10T02:36:34.539Z,3.55
2022-10-10T02:42:45.517Z,3.42
2022-10-10T02:45:49.306Z,3.75
2022-10-10T02:48:54.948Z,3.63
2022-10-10T02:51:58.933Z,3.80
2022-10-10T02:58:06.026Z,3.13
2022-10-10T03:01:09.873Z,3.78
2022-10-10T03:04:15.486Z,3.92
2022-10-10T03:07:19.245Z,3.45
2022-10-10T03:10:22.865Z,3.72
2022-10-10T03:13:26.628Z,3.75
2022-10-10T03:16:30.269Z,3.75
2022-10-10T03:19:35.869Z,3.67
2022-10-10T03:22:39.535Z,3.72
2022-10-10T03:25:44.174Z,3.63
2022-10-10T03:28:47.824Z,3.95
2022-10-10T03:31:51.435Z,3.70
2022-10-10T03:34:56.967Z,4.20
2022-10-10T03:38:01.406Z,3.20
2022-10-10T03:41:05.068Z,3.92
2022-10-10T03:44:08.658Z,3.65
2022-10-10T03:47:12.338Z,3.38
2022-10-10T03:50:18.338Z,2.92
2022-10-10T03:53:21.972Z,3.58
2022-10-10T03:56:25.591Z,3.88
2022-10-10T03:59:29.302Z,3.13
2022-10-10T04:02:32.928Z,3.30
2022-10-10T04:05:40.156Z,3.53
2022-10-10T04:08:43.802Z,2.97
2022-10-10T04:11:47.388Z,3.63
2022-10-10T04:14:51.045Z,3.95
2022-10-10T04:17:54.673Z,3.72
2022-10-10T04:21:03.312Z,4.53
2022-10-10T04:24:07.195Z,3.80
2022-10-10T04:27:10.876Z,3.72
2022-10-10T04:30:15.182Z,3.63
2022-10-10T04:33:18.851Z,3.10
2022-10-10T04:36:24.431Z,3.95
2022-10-10T04:39:28.369Z,3.60
2022-10-10T04:45:37.690Z,3.17
2022-10-10T04:48:41.511Z,4.38
2022-10-10T04:51:47.623Z,4.60
2022-10-10T04:54:51.225Z,3.03
2022-10-10T04:57:55.123Z,3.67
2022-10-10T05:04:02.426Z,3.50
2022-10-10T05:07:07.998Z,4.40
2022-10-10T05:10:11.713Z,3.58
2022-10-10T05:13:17.076Z,3.90
2022-10-10T05:16:20.800Z,4.18
2022-10-10T05:19:24.716Z,3.45
2022-10-10T05:25:33.690Z,3.55
2022-10-10T05:28:37.670Z,3.97
2022-10-10T05:31:41.345Z,3.35
2022-10-10T05:34:45.107Z,3.38
2022-10-10T05:37:50.695Z,3.70
2022-10-10T05:40:56.160Z,3.72
2022-10-10T05:43:59.774Z,3.42
2022-10-10T05:47:03.841Z,3.90
2022-10-10T05:50:08.993Z,3.55
2022-10-10T05:53:14.538Z,4.32
2022-10-10T05:56:18.281Z,3.28
2022-10-10T05:59:21.891Z,4.10
2022-10-10T06:02:25.530Z,3.90
2022-10-10T06:05:29.901Z,4.63
2022-10-10T06:08:35.678Z,4.05
2022-10-10T06:11:39.303Z,4.82
2022-10-10T06:14:43.153Z,4.95
2022-10-10T06:17:46.803Z,4.60
2022-10-10T06:20:50.439Z,4.35
2022-10-10T06:23:56.072Z,4.20
2022-10-10T06:26:59.766Z,4.10
2022-10-10T06:30:03.472Z,4.20
2022-10-10T06:33:07.141Z,4.10
2022-10-10T06:36:11.798Z,3.83
2022-10-10T06:39:17.389Z,4.03
2022-10-10T06:42:20.995Z,4.35
2022-10-10T06:45:30.534Z,5.35
2022-10-10T06:48:34.992Z,4.30
2022-10-10T06:51:38.771Z,5.45
2022-10-10T06:54:44.946Z,4.80
2022-10-10T06:57:48.553Z,4.22
2022-10-10T07:00:53.589Z,4.35
2022-10-10T07:03:57.391Z,4.70
2022-10-10T07:07:01.027Z,4.80
2022-10-10T07:10:07.307Z,6.25
2022-10-10T07:13:10.977Z,5.35
2022-10-10T07:16:14.598Z,5.50
2022-10-10T07:19:18.502Z,4.85
2022-10-10T07:22:22.150Z,5.03
2022-10-10T07:25:28.036Z,5.97
2022-10-10T07:28:31.832Z,5.78
2022-10-10T07:31:35.898Z,5.55
2022-10-10T07:37:43.102Z,4.75
2022-10-10T07:40:48.770Z,5.47
2022-10-10T07:43:56.727Z,5.57
2022-10-10T07:47:00.327Z,5.65
2022-10-10T07:50:05.550Z,5.75
2022-10-10T07:53:09.414Z,4.72
2022-10-10T07:56:14.990Z,4.70
2022-10-10T07:59:18.753Z,5.80
2022-10-10T08:02:22.333Z,4.55
2022-10-10T08:05:26.063Z,4.30
2022-10-10T08:08:29.690Z,6.82
2022-10-10T08:11:35.363Z,5.22
2022-10-10T08:14:39.138Z,4.88
2022-10-10T08:17:42.806Z,5.07
2022-10-10T08:20:46.514Z,4.03
2022-10-10T08:23:50.489Z,4.15
2022-10-10T08:29:59.418Z,4.85
2022-10-10T08:33:03.053Z,4.72
2022-10-10T08:36:07.648Z,5.05
2022-10-10T08:39:11.275Z,4.15
2022-10-10T08:42:24.302Z,4.75
2022-10-10T08:45:29.769Z,4.22
2022-10-10T08:48:34.278Z,4.68
2022-10-10T08:51:38.838Z,4.63
2022-10-10T08:54:44.089Z,4.88
2022-10-10T08:57:54.474Z,4.43
2022-10-10T09:01:08.078Z,3.83
2022-10-10T09:04:18.330Z,4.13
2022-10-10T09:07:31.022Z,4.00
2022-10-10T09:10:44.371Z,4.97
2022-10-10T09:13:59.120Z,4.00
2022-10-10T09:17:13.885Z,4.25
2022-10-10T09:20:28.218Z,3.88
2022-10-10T09:23:38.257Z,4.93
2022-10-10T09:26:46.813Z,3.80
2022-10-10T09:29:58.954Z,3.65
2022-10-10T09:33:09.787Z,4.28
2022-10-10T09:36:18.712Z,3.80
2022-10-10T09:39:29.147Z,4.15
2022-10-10T09:42:36.859Z,3.92
2022-10-10T09:45:48.638Z,3.78
2022-10-10T09:48:53.115Z,3.78
2022-10-10T09:51:56.770Z,4.32
2022-10-10T09:55:02.969Z,4.18
2022-10-10T09:58:17.238Z,4.68
2022-10-10T10:01:28.235Z,3.70
2022-10-10T10:04:34.328Z,4.13
2022-10-10T10:07:49.245Z,3.80
2022-10-10T10:10:57.398Z,3.88
2022-10-10T10:14:01.917Z,3.92
2022-10-10T10:17:12.623Z,4.07
2022-10-10T10:20:36.457Z,4.78
2022-10-10T10:23:44.352Z,4.45
2022-10-10T10:26:49.654Z,3.95
2022-10-10T10:29:55.321Z,3.83
2022-10-10T10:33:07.192Z,4.30
2022-10-10T10:36:26.849Z,3.78
2022-10-10T10:39:42.789Z,3.90
2022-10-10T10:43:06.578Z,3.85
2022-10-10T10:46:15.598Z,4.95
2022-10-10T10:49:25.691Z,3.78
2022-10-10T10:52:50.051Z,4.55
2022-10-10T10:56:00.237Z,4.25
2022-10-10T11:00:20.429Z,3.83
2022-10-10T11:03:35.155Z,3.85
2022-10-10T11:07:13.887Z,4.00
2022-10-10T11:10:24.811Z,3.88
2022-10-10T11:13:33.870Z,3.95
2022-10-10T11:16:48.483Z,3.83
2022-10-10T11:19:58.135Z,4.25
2022-10-10T11:23:09.316Z,4.22
2022-10-10T11:26:19.518Z,4.22
2022-10-10T11:29:26.993Z,4.30
2022-10-10T11:32:37.235Z,3.95
2022-10-10T11:35:47.905Z,4.15
2022-10-10T11:38:57.810Z,3.83
2022-10-10T11:42:09.032Z,3.58
2022-10-10T11:45:20.618Z,3.97
2022-10-10T11:48:33.303Z,4.13
2022-10-10T11:51:46.335Z,3.88
2022-10-10T11:54:57.002Z,3.90
2022-10-10T11:58:26.794Z,4.43
2022-10-10T12:01:33.392Z,4.30
2022-10-10T12:04:38.198Z,3.47
2022-10-10T12:07:48.349Z,4.65
2022-10-10T12:10:59.293Z,4.03
2022-10-10T12:14:05.285Z,5.07
2022-10-10T12:17:21.549Z,4.03
2022-10-10T12:20:34.715Z,4.00
2022-10-10T12:23:40.454Z,3.47
2022-10-10T12:27:26.988Z,3.97
2022-10-10T12:30:31.005Z,3.30
2022-10-10T12:37:12.598Z,3.97
2022-10-10T12:40:25.215Z,3.53
2022-10-10T12:43:43.720Z,3.45
2022-10-10T12:46:49.262Z,3.78
2022-10-10T12:49:54.987Z,3.38
2022-10-10T12:53:00.759Z,4.10
2022-10-10T12:56:05.156Z,3.28
2022-10-10T12:59:19.607Z,3.88
2022-10-10T13:02:27.563Z,3.92
2022-10-10T13:05:34.375Z,4.72
2022-10-10T13:08:38.824Z,3.92
2022-10-10T13:11:53.329Z,3.72
2022-10-10T13:15:01.133Z,4.05
2022-10-10T13:18:04.946Z,4.32
2022-10-10T13:21:10.803Z,3.60
2022-10-10T13:24:18.488Z,3.95
2022-10-10T13:27:25.077Z,3.53
2022-10-10T13:30:30.753Z,4.38
2022-10-10T13:33:35.922Z,4.15
2022-10-10T13:36:39.782Z,4.18
2022-10-10T13:39:43.976Z,4.85
2022-10-10T13:42:49.222Z,3.60
2022-10-10T13:45:59.735Z,3.83
2022-10-10T13:49:13.955Z,3.65
2022-10-10T13:55:29.180Z,5.15
2022-10-10T13:58:35.319Z,4.70
2022-10-10T14:01:43.450Z,4.60
2022-10-10T14:04:50.762Z,4.75
2022-10-10T14:07:55.423Z,4.30
2022-10-10T14:11:02.212Z,5.47
2022-10-10T14:14:09.654Z,4.85
2022-10-10T14:17:16.262Z,4.53
2022-10-10T14:20:19.895Z,4.85
2022-10-10T14:23:23.920Z,4.80
2022-10-10T14:29:31.306Z,4.00
2022-10-10T14:35:40.690Z,5.50
2022-10-10T14:41:47.985Z,4.97
2022-10-10T14:47:57.093Z,5.50
2022-10-10T14:51:01.133Z,5.85
2022-10-10T14:54:24.303Z,5.60
2022-10-10T14:57:27.932Z,5.22
2022-10-10T15:00:31.905Z,5.95
2022-10-10T15:06:55.415Z,2.05
2022-10-10T15:13:29.061Z,0.63
2022-10-10T15:16:33.206Z,0.95
2022-10-10T15:19:38.855Z,0.95
2022-10-10T15:22:43.031Z,1.02
2022-10-10T15:25:46.667Z,2.30
2022-10-10T15:28:50.441Z,0.82
2022-10-10T15:31:54.607Z,1.10
2022-10-10T15:38:03.729Z,1.30
2022-10-10T15:41:10.282Z,0.80
2022-10-10T15:44:15.777Z,1.58
2022-10-10T15:47:20.382Z,1.40
2022-10-10T15:53:51.676Z,1.30
2022-10-10T15:56:55.382Z,1.83
2022-10-10T15:59:17.787Z,2.60
2022-10-10T15:59:58.993Z,1.50
2022-10-10T16:03:02.596Z,1.55
2022-10-10T16:06:09.239Z,3.20
2022-10-10T16:09:27.783Z,2.30
2022-10-10T16:12:32.195Z,2.28
2022-10-10T16:15:35.966Z,2.70
2022-10-10T16:18:41.946Z,1.90
2022-10-10T16:21:47.547Z,2.15
2022-10-10T16:25:10.362Z,2.65
2022-10-10T16:28:14.836Z,1.90
2022-10-10T16:31:20.361Z,3.22
2022-10-10T16:34:23.989Z,2.65
2022-10-10T16:37:29.577Z,1.40
2022-10-10T16:40:35.813Z,1.95
2022-10-10T16:43:40.149Z,3.28
2022-10-10T16:46:43.765Z,2.22
2022-10-10T16:49:47.399Z,3.55
2022-10-10T16:52:52.957Z,2.55
2022-10-10T16:55:59.406Z,1.95
2022-10-10T16:59:03.442Z,1.90
2022-10-10T17:02:07.137Z,3.22
2022-10-10T17:05:11.218Z,2.15
2022-10-10T17:08:16.819Z,2.00
2022-10-10T17:11:22.397Z,1.50
2022-10-10T17:14:26.014Z,2.08
2022-10-10T17:17:29.668Z,2.10
2022-10-10T17:20:34.072Z,2.20
2022-10-10T17:23:39.674Z,2.50
2022-10-10T17:26:43.397Z,2.22
2022-10-10T17:29:47.262Z,2.55
2022-10-10T17:32:50.921Z,2.20
2022-10-10T17:35:54.552Z,3.03
2022-10-10T17:39:00.929Z,2.83
2022-10-10T17:42:05.393Z,2.50
2022-10-10T17:45:10.493Z,2.58
2022-10-10T17:48:14.132Z,2.85
2022-10-10T17:51:22.157Z,3.70
2022-10-10T17:54:27.719Z,3.10
2022-10-10T17:57:32.709Z,2.70
2022-10-10T18:00:36.364Z,3.20
2022-10-10T18:03:40.001Z,3.25
2022-10-10T18:06:43.655Z,4.53
2022-10-10T18:09:52.265Z,4.97
2022-10-10T18:12:55.990Z,3.17
2022-10-10T18:16:07.490Z,3.20
2022-10-10T18:19:12.335Z,3.70
2022-10-10T18:22:16.080Z,2.63
2022-10-10T18:25:25.095Z,2.92
2022-10-10T18:28:31.766Z,4.57
2022-10-10T18:31:37.566Z,6.97
2022-10-10T18:34:42.197Z,5.55
2022-10-10T18:37:45.829Z,4.13
2022-10-10T18:40:51.445Z,4.57
2022-10-10T18:43:57.272Z,3.33
2022-10-10T18:47:01.172Z,3.20
2022-10-10T18:50:05.170Z,5.10
2022-10-10T18:56:17.385Z,5.35
2022-10-10T18:59:22.762Z,5.00
2022-10-10T19:02:26.417Z,4.50
2022-10-10T19:05:30.053Z,3.85
2022-10-10T19:08:34.035Z,2.95
2022-10-10T19:14:44.145Z,2.60
2022-10-10T19:17:47.756Z,3.10
2022-10-10T19:20:51.490Z,2.67
2022-10-10T19:23:55.200Z,3.15
2022-10-10T19:27:00.798Z,3.78
2022-10-10T19:30:04.577Z,3.90
2022-10-10T19:33:08.562Z,3.30
2022-10-10T19:39:16.281Z,2.47
2022-10-10T19:42:21.886Z,3.53
2022-10-10T19:45:25.545Z,3.17
2022-10-10T19:48:30.809Z,3.33
2022-10-10T19:51:34.574Z,3.78
2022-10-10T19:54:38.235Z,5.03
2022-10-10T19:57:43.793Z,5.03
2022-10-10T20:00:47.427Z,3.95
2022-10-10T20:03:51.618Z,4.38
2022-10-10T20:06:55.259Z,4.10
2022-10-10T20:09:58.966Z,3.28
2022-10-10T20:13:04.517Z,2.75
2022-10-10T20:16:10.588Z,3.85
2022-10-10T20:19:14.243Z,4.30
2022-10-10T20:22:17.881Z,3.72
2022-10-10T20:25:21.505Z,4.30
2022-10-10T20:28:27.163Z,5.05
2022-10-10T20:31:36.056Z,4.50
2022-10-10T20:34:39.795Z,3.83
2022-10-10T20:37:43.602Z,4.20
2022-10-10T20:40:47.265Z,4.25
2022-10-10T20:43:57.544Z,4.20
2022-10-10T20:47:01.293Z,3.55
2022-10-10T20:50:05.156Z,3.33
2022-10-10T20:56:14.075Z,4.55
2022-10-10T20:59:21.256Z,3.50
2022-10-10T21:02:24.935Z,3.95
2022-10-10T21:05:28.585Z,4.38
2022-10-10T21:08:32.238Z,5.10
2022-10-10T21:11:38.402Z,4.78
2022-10-10T21:14:43.927Z,3.97
2022-10-10T21:17:49.861Z,3.42
2022-10-10T21:20:58.568Z,3.10
2022-10-10T21:24:03.345Z,3.45
2022-10-10T21:27:06.966Z,3.03
2022-10-10T21:30:13.130Z,4.13
2022-10-10T21:33:19.244Z,3.25
2022-10-10T21:36:24.250Z,2.45
2022-10-10T21:39:28.209Z,2.90
2022-10-10T21:45:38.482Z,2.72
2022-10-10T21:48:42.086Z,2.42
2022-10-10T21:51:46.793Z,2.85
2022-10-10T21:54:50.734Z,2.55
2022-10-10T21:57:54.618Z,2.80
2022-10-10T22:01:00.413Z,2.67
2022-10-10T22:04:04.819Z,3.80
2022-10-10T22:07:08.494Z,2.80
2022-10-10T22:10:14.734Z,2.72
2022-10-10T22:13:22.313Z,2.95
2022-10-10T22:16:28.292Z,2.60
2022-10-10T22:19:31.899Z,2.65
2022-10-10T22:22:36.893Z,2.22
2022-10-10T22:25:45.119Z,3.13
2022-10-10T22:28:48.837Z,3.05
2022-10-10T22:31:54.414Z,2.90
2022-10-10T22:34:58.033Z,2.50
2022-10-10T22:38:02.145Z,2.63
2022-10-10T22:44:09.728Z,2.47
2022-10-10T22:47:15.295Z,2.50
2022-10-10T22:50:19.448Z,2.72
2022-10-10T22:53:23.465Z,1.98
2022-10-10T22:59:30.547Z,2.20
2022-10-10T23:02:36.104Z,2.38
2022-10-10T23:05:39.737Z,2.55
2022-10-10T23:08:43.424Z,3.30
2022-10-10T23:11:47.068Z,3.10
2022-10-10T23:14:50.718Z,2.83
2022-10-10T23:17:56.304Z,2.90
2022-10-10T23:21:00.105Z,2.45
2022-10-10T23:24:03.927Z,3.45
2022-10-10T23:27:07.582Z,4.03
2022-10-10T23:30:12.394Z,2.35
2022-10-10T23:33:18.474Z,2.53
2022-10-10T23:36:22.270Z,2.83
2022-10-10T23:39:36.130Z,2.13
2022-10-10T23:42:50.018Z,2.53
2022-10-10T23:46:04.521Z,2.50
2022-10-10T23:49:20.457Z,2.42
2022-10-10T23:52:34.593Z,2.28
2022-10-10T23:55:49.273Z,1.95
2022-10-10T23:59:03.155Z,2.60
